createdAt,value
2023-07-02T00:03:30.474Z,10.30
2023-07-02T00:08:41.995Z,10.70
2023-07-02T00:13:51.660Z,11.60
2023-07-02T00:19:01.412Z,12.70
2023-07-02T00:24:12.076Z,11.10
2023-07-02T00:29:21.658Z,13.50
2023-07-02T00:34:31.428Z,11.70
2023-07-02T00:39:41.135Z,11.00
2023-07-02T00:44:53.835Z,10.70
2023-07-02T00:50:04.533Z,11.90
2023-07-02T00:55:15.515Z,10.90
2023-07-02T01:00:25.738Z,10.70
2023-07-02T01:05:37.862Z,11.30
2023-07-02T01:10:48.538Z,11.00
2023-07-02T01:15:59.156Z,11.80
2023-07-02T01:21:09.532Z,10.20
2023-07-02T01:26:19.864Z,10.40
2023-07-02T01:31:29.593Z,11.30
2023-07-02T01:36:39.549Z,12.70
2023-07-02T01:41:55.241Z,11.20
2023-07-02T01:47:05.025Z,11.10
2023-07-02T01:52:14.998Z,11.10
2023-07-02T01:57:24.842Z,9.80
2023-07-02T02:02:34.646Z,11.30
2023-07-02T02:07:44.582Z,11.00
2023-07-02T02:12:54.130Z,10.30
2023-07-02T02:18:04.178Z,10.20
2023-07-02T02:23:14.017Z,9.80
2023-07-02T02:28:23.964Z,9.90
2023-07-02T02:33:34.419Z,12.50
2023-07-02T02:38:44.109Z,11.50
2023-07-02T02:43:53.748Z,11.60
2023-07-02T02:49:03.503Z,11.40
2023-07-02T02:54:13.279Z,11.60
2023-07-02T02:59:23.025Z,11.10
2023-07-02T03:04:33.042Z,11.30
2023-07-02T03:09:42.746Z,11.70
2023-07-02T03:14:54.466Z,10.70
2023-07-02T03:20:05.289Z,11.70
2023-07-02T03:25:15.237Z,11.30
2023-07-02T03:30:25.191Z,10.60
2023-07-02T03:35:34.972Z,11.00
2023-07-02T03:40:44.529Z,11.10
2023-07-02T03:45:54.275Z,11.50
2023-07-02T03:51:04.796Z,11.50
2023-07-02T03:56:14.376Z,12.30
2023-07-02T04:01:23.977Z,11.00
2023-07-02T04:06:33.936Z,15.30
2023-07-02T04:11:43.697Z,13.00
2023-07-02T04:16:53.584Z,13.80
2023-07-02T04:22:04.129Z,12.90
2023-07-02T04:27:40.167Z,13.80
2023-07-02T04:32:44.936Z,12.60
2023-07-02T04:37:54.688Z,14.60
2023-07-02T04:43:05.381Z,12.30
2023-07-02T04:48:14.985Z,13.30
2023-07-02T04:53:24.444Z,11.50
2023-07-02T04:58:34.560Z,13.00
2023-07-02T05:03:44.903Z,13.50
2023-07-02T05:08:55.157Z,12.20
2023-07-02T05:14:04.684Z,14.40
2023-07-02T05:19:14.474Z,10.70
2023-07-02T05:24:24.350Z,11.70
2023-07-02T05:29:34.375Z,10.10
2023-07-02T05:34:44.089Z,9.60
2023-07-02T05:39:54.282Z,10.00
2023-07-02T05:45:04.539Z,10.90
2023-07-02T05:50:15.477Z,8.80
2023-07-02T05:55:25.809Z,10.50
2023-07-02T06:00:35.547Z,9.40
2023-07-02T06:05:45.431Z,8.80
2023-07-02T06:10:55.706Z,10.30
2023-07-02T06:16:05.880Z,8.60
2023-07-02T06:21:15.681Z,9.10
2023-07-02T06:26:25.822Z,10.50
2023-07-02T06:31:35.834Z,8.50
2023-07-02T06:36:45.770Z,9.10
2023-07-02T06:41:55.540Z,8.70
2023-07-02T06:47:05.440Z,9.10
2023-07-02T06:52:15.237Z,9.10
2023-07-02T06:57:25.203Z,8.50
2023-07-02T07:02:34.952Z,8.00
2023-07-02T07:07:45.769Z,9.20
2023-07-02T07:12:55.620Z,7.90
2023-07-02T07:18:06.154Z,7.70
2023-07-02T07:23:16.743Z,7.30
2023-07-02T07:28:26.519Z,6.10
2023-07-02T07:33:36.342Z,6.20
2023-07-02T07:38:47.729Z,5.40
2023-07-02T07:43:59.660Z,5.30
2023-07-02T07:49:09.490Z,4.60
2023-07-02T07:54:19.661Z,6.40
2023-07-02T07:59:29.754Z,4.20
2023-07-02T08:04:39.711Z,4.30
2023-07-02T08:09:49.463Z,3.80
2023-07-02T08:14:59.240Z,4.10
2023-07-02T08:20:11.172Z,4.20
2023-07-02T08:25:23.070Z,5.30
2023-07-02T08:30:32.819Z,4.30
2023-07-02T08:35:42.464Z,5.00
2023-07-02T08:40:53.725Z,4.60
2023-07-02T08:46:03.810Z,4.90
2023-07-02T08:51:13.891Z,4.40
2023-07-02T08:56:23.579Z,3.90
2023-07-02T09:01:33.359Z,5.40
2023-07-02T09:06:43.437Z,4.40
2023-07-02T09:11:56.581Z,4.00
2023-07-02T09:17:11.680Z,6.30
2023-07-02T09:22:21.672Z,4.10
2023-07-02T09:27:44.811Z,5.00
2023-07-02T09:32:57.878Z,4.80
2023-07-02T09:38:08.301Z,5.30
2023-07-02T09:43:20.227Z,3.80
2023-07-02T09:48:35.141Z,4.00
2023-07-02T09:53:45.301Z,5.60
2023-07-02T09:58:55.285Z,4.20
2023-07-02T10:04:21.075Z,5.10
2023-07-02T10:09:44.797Z,4.90
2023-07-02T10:14:56.429Z,4.50
2023-07-02T10:20:12.027Z,3.90
2023-07-02T10:25:32.629Z,5.20
2023-07-02T10:30:43.539Z,5.30
2023-07-02T10:35:54.425Z,5.30
2023-07-02T10:41:04.762Z,4.40
2023-07-02T10:46:23.386Z,4.80
2023-07-02T10:51:33.332Z,4.60
2023-07-02T10:56:45.932Z,4.50
2023-07-02T11:01:57.172Z,4.50
2023-07-02T11:07:08.176Z,4.70
2023-07-02T11:12:18.296Z,5.00
2023-07-02T11:17:32.322Z,5.70
2023-07-02T11:22:43.760Z,5.70
2023-07-02T11:28:04.410Z,4.60
2023-07-02T11:33:14.632Z,4.90
2023-07-02T11:38:24.630Z,4.60
2023-07-02T11:43:35.507Z,4.40
2023-07-02T11:48:45.583Z,4.20
2023-07-02T11:53:55.550Z,5.90
2023-07-02T11:59:05.529Z,5.30
2023-07-02T12:04:16.846Z,5.80
2023-07-02T12:09:27.387Z,5.20
2023-07-02T12:14:37.050Z,6.40
2023-07-02T12:19:46.734Z,5.10
2023-07-02T12:24:57.916Z,4.70
2023-07-02T12:30:09.575Z,7.50
2023-07-02T12:35:19.711Z,6.00
2023-07-02T12:40:29.384Z,6.40
2023-07-02T12:45:39.547Z,4.60
2023-07-02T12:51:00.207Z,7.00
2023-07-02T12:56:11.231Z,5.90
2023-07-02T13:01:22.107Z,5.00
2023-07-02T13:06:36.020Z,6.20
2023-07-02T13:11:46.159Z,4.50
2023-07-02T13:16:56.528Z,4.20
2023-07-02T13:22:07.864Z,4.30
2023-07-02T13:27:22.008Z,8.20
2023-07-02T13:32:33.182Z,9.20
2023-07-02T13:37:43.105Z,5.30
2023-07-02T13:42:53.132Z,6.70
2023-07-02T13:48:03.319Z,5.40
2023-07-02T13:53:13.899Z,5.70
2023-07-02T13:58:30.047Z,6.30
2023-07-02T14:03:42.135Z,5.90
2023-07-02T14:08:52.598Z,7.20
2023-07-02T14:14:02.212Z,5.80
2023-07-02T14:19:13.545Z,6.50
2023-07-02T14:24:23.302Z,7.00
2023-07-02T14:29:33.083Z,8.00
2023-07-02T14:34:43.050Z,5.50
2023-07-02T14:40:05.831Z,5.20
2023-07-02T14:45:17.278Z,6.80
2023-07-02T14:50:26.897Z,6.40
2023-07-02T14:55:37.089Z,5.30
2023-07-02T15:00:51.926Z,6.00
2023-07-02T15:06:13.866Z,5.40
2023-07-02T15:11:24.693Z,7.00
2023-07-02T15:16:35.578Z,6.70
2023-07-02T15:21:45.860Z,6.60
2023-07-02T15:26:55.565Z,7.30
2023-07-02T15:32:05.417Z,7.70
2023-07-02T15:37:15.464Z,5.80
2023-07-02T15:42:29.588Z,6.50
2023-07-02T15:47:39.631Z,6.90
2023-07-02T15:52:49.530Z,5.90
2023-07-02T15:58:00.817Z,5.60
2023-07-02T16:03:10.667Z,9.50
2023-07-02T16:08:20.633Z,10.30
2023-07-02T16:13:31.753Z,7.10
2023-07-02T16:18:41.930Z,8.20
2023-07-02T16:23:51.765Z,6.70
2023-07-02T16:29:01.957Z,8.50
2023-07-02T16:34:12.169Z,6.80
2023-07-02T16:39:23.788Z,7.00
2023-07-02T16:44:36.718Z,11.30
2023-07-02T16:49:47.875Z,7.80
2023-07-02T16:54:58.850Z,7.50
2023-07-02T17:00:12.470Z,6.90
2023-07-02T17:05:22.798Z,7.70
2023-07-02T17:10:32.553Z,9.80
2023-07-02T17:15:43.340Z,8.50
2023-07-02T17:20:57.335Z,7.60
2023-07-02T17:26:08.176Z,7.90
2023-07-02T17:31:18.625Z,5.60
2023-07-02T17:36:30.025Z,6.20
2023-07-02T17:41:39.802Z,6.60
2023-07-02T17:46:50.406Z,7.00
2023-07-02T17:52:00.711Z,14.40
2023-07-02T17:57:13.482Z,23.00
2023-07-02T18:02:24.184Z,9.20
2023-07-02T18:07:33.939Z,6.30
2023-07-02T18:12:43.765Z,6.40
2023-07-02T18:17:53.856Z,9.00
2023-07-02T18:23:03.706Z,9.30
2023-07-02T18:28:16.166Z,10.20
2023-07-02T18:33:26.115Z,8.10
2023-07-02T18:38:36.576Z,6.00
2023-07-02T18:43:46.430Z,10.00
2023-07-02T18:48:56.494Z,8.20
2023-07-02T18:54:06.733Z,8.80
2023-07-02T18:59:16.662Z,8.30
2023-07-02T19:04:27.098Z,8.20
2023-07-02T19:09:40.263Z,6.80
2023-07-02T19:14:50.237Z,6.90
2023-07-02T19:20:00.602Z,6.80
2023-07-02T19:25:13.270Z,6.90
2023-07-02T19:30:23.576Z,7.60
2023-07-02T19:35:34.166Z,6.80
2023-07-02T19:40:44.141Z,6.90
2023-07-02T19:45:54.478Z,7.40
2023-07-02T19:51:09.451Z,7.80
2023-07-02T19:56:19.719Z,7.90
2023-07-02T20:01:29.723Z,6.50
2023-07-02T20:06:39.797Z,6.00
2023-07-02T20:11:49.658Z,6.80
2023-07-02T20:17:00.036Z,7.70
2023-07-02T20:22:10.786Z,7.20
2023-07-02T20:27:21.896Z,6.40
2023-07-02T20:32:33.108Z,7.50
2023-07-02T20:37:50.301Z,9.00
2023-07-02T20:43:00.964Z,7.20
2023-07-02T20:48:14.537Z,7.90
2023-07-02T20:53:24.587Z,10.00
2023-07-02T20:58:34.522Z,9.70
2023-07-02T21:03:44.365Z,9.20
2023-07-02T21:08:54.225Z,8.60
2023-07-02T21:14:05.062Z,9.10
2023-07-02T21:19:14.765Z,9.00
2023-07-02T21:24:25.120Z,9.30
2023-07-02T21:29:35.559Z,7.80
2023-07-02T21:34:45.499Z,8.10
2023-07-02T21:39:55.234Z,8.80
2023-07-02T21:45:05.277Z,8.60
2023-07-02T21:50:15.801Z,8.00
2023-07-02T21:55:25.681Z,7.70
2023-07-02T22:00:35.516Z,9.70
2023-07-02T22:05:45.407Z,8.40
2023-07-02T22:11:02.908Z,12.10
2023-07-02T22:16:19.146Z,8.00
2023-07-02T22:21:29.298Z,8.50
2023-07-02T22:26:39.499Z,7.20
2023-07-02T22:31:49.329Z,8.30
2023-07-02T22:36:59.006Z,9.10
2023-07-02T22:42:09.793Z,7.20
2023-07-02T22:47:20.243Z,7.20
2023-07-02T22:52:30.668Z,9.30
2023-07-02T22:57:44.747Z,7.30
2023-07-02T23:02:55.065Z,7.60
2023-07-02T23:08:05.282Z,8.70
2023-07-02T23:13:14.958Z,7.10
2023-07-02T23:18:24.575Z,7.40
2023-07-02T23:23:34.329Z,9.90
2023-07-02T23:28:44.082Z,8.80
2023-07-02T23:33:53.899Z,7.70
2023-07-02T23:39:03.630Z,9.90
2023-07-02T23:44:13.923Z,6.90
2023-07-02T23:49:23.561Z,17.90
2023-07-02T23:54:33.464Z,7.20
2023-07-02T23:59:43.189Z,7.40
